Accueil
METAR-TAF:

METAR-TAF

Aéroports :

Aéroport international Georges-Enesco

Bacau, Roumanie

latitude: 46-35N, longitude: 026-58E, altitude: 184 m

Observation

Le bulletin a été fait il y a 15 minutes, à 22:00 UTC
Vent 4 kt de nord/nord-est
Température 7°C
Humidité 93%
Pression 1028 hPa
Visibilité 10 km ou plus
Nuages fragmentés à une hauteur de 6500 ft

METAR: LRBC 192200Z 02004KT 9999 BKN065 07/06 Q1028 R16/19//95

Heure: 01:15 (22:15 UTC)

Prévision

Le bulletin a été fait il y a 2 heures et 15 minutes, à 20:00 UTC
Prévision valable du 19 à 21 UTC au 20 à 06 UTC
Vent 8 kt de nord/nord-ouest
Visibilité 10 km ou plus
Nuages épars à une hauteur de 3000 ft
Nuages fragmentés à une hauteur de 4500 ft
Temporairement
du 19 à 21 UTC au 19 à 23 UTC
Visibilité: 5000 m
pluie faible

TAF: LRBC 192000Z 1921/2006 34008KT 9999 SCT030 BKN045 TEMPO 1921/1923 5000 -RA

Observations et prévisions météorologiques de plus de 4000 aéroports (messages METAR et TAF).

Les stations disponibles sont représentées par des disques jaunes et rouges sur la carte.

Passer la souris dessus pour voir le nom de la station.

Cliquer dessus pour voir les observations et prévisions météorologiques.

Pour changer de carte: cliquez sur les boutons verts avec une croix noire pour zoomer, sur le bouton vert avec un tiret pour effectuer un zoom arrière, ou sur les flèches vertes pour les cartes adjacentes.


METAR-TAF: